createdAt,value
2023-04-08T05:07:34.098Z,18.45
2023-04-08T05:08:38.153Z,16.83
2023-04-08T05:17:01.511Z,19.82
2023-04-08T05:18:05.091Z,20.15
2023-04-08T05:19:12.301Z,19.65
2023-04-08T05:20:16.402Z,18.93
2023-04-08T05:21:19.437Z,16.55
2023-04-08T05:22:26.482Z,17.70
2023-04-08T05:23:28.870Z,19.13
2023-04-08T05:24:30.891Z,21.00
2023-04-08T05:25:32.670Z,21.18
2023-04-08T05:26:34.601Z,19.03
2023-04-08T05:27:36.689Z,18.89
2023-04-08T05:28:38.746Z,20.48
2023-04-08T05:29:40.592Z,20.67
2023-04-08T05:30:42.483Z,20.57
2023-04-08T05:31:44.996Z,20.61
2023-04-08T05:40:36.471Z,19.74
2023-04-08T05:41:42.581Z,21.55
2023-04-08T05:43:14.944Z,21.93
2023-04-08T05:44:18.156Z,21.62
2023-04-08T05:51:04.660Z,20.79
2023-04-08T05:53:23.838Z,19.14
2023-04-08T05:54:30.102Z,20.03
2023-04-08T05:55:33.345Z,19.71
2023-04-08T05:56:38.145Z,19.01
2023-04-08T05:58:18.237Z,19.43
2023-04-08T06:00:04.287Z,20.31
2023-04-08T06:01:13.181Z,20.46
2023-04-08T06:02:16.009Z,19.61
2023-04-08T06:03:22.950Z,20.95
2023-04-08T06:04:25.694Z,21.65
2023-04-08T06:05:30.053Z,21.40
2023-04-08T06:06:39.954Z,21.13
2023-04-08T06:07:42.006Z,20.40
2023-04-08T06:08:49.646Z,20.92
2023-04-08T06:09:51.827Z,20.85
2023-04-08T06:10:56.556Z,21.41
2023-04-08T06:11:58.810Z,20.92
2023-04-08T06:13:31.457Z,20.23
2023-04-08T06:14:33.520Z,21.21
2023-04-08T06:15:42.277Z,21.93
2023-04-08T06:16:44.462Z,21.70
2023-04-08T06:17:52.454Z,21.71
2023-04-08T06:18:59.333Z,19.06
2023-04-08T06:20:01.951Z,20.50
2023-04-08T06:21:09.343Z,20.38
2023-04-08T06:22:11.541Z,19.43
2023-04-08T06:23:47.779Z,18.38
2023-04-08T06:24:51.023Z,16.82
2023-04-08T06:26:04.268Z,17.14
2023-04-08T06:27:12.964Z,17.65
2023-04-08T06:28:15.407Z,17.67
2023-04-08T06:29:17.266Z,19.14
2023-04-08T06:30:28.674Z,19.45
2023-04-08T06:31:30.921Z,19.66
2023-04-08T06:32:32.882Z,20.36
2023-04-08T06:33:36.012Z,21.38
2023-04-08T06:34:38.265Z,22.41
2023-04-08T06:35:40.267Z,21.93
2023-04-08T06:36:45.071Z,21.50
2023-04-08T06:37:50.711Z,20.93
2023-04-08T06:38:52.732Z,18.77
2023-04-08T06:40:00.484Z,18.34
2023-04-08T06:41:36.548Z,18.18
2023-04-08T06:42:52.396Z,19.05
2023-04-08T06:44:10.833Z,21.16
2023-04-08T06:45:12.727Z,21.29
2023-04-08T06:46:14.613Z,21.92
2023-04-08T06:47:17.467Z,20.98
2023-04-08T06:48:38.692Z,19.32
2023-04-08T06:49:41.487Z,17.06
2023-04-08T06:50:44.046Z,18.76
2023-04-08T06:51:46.085Z,18.91
2023-04-08T06:52:47.912Z,19.79
2023-04-08T06:53:50.876Z,20.44
2023-04-08T06:54:52.865Z,21.29
2023-04-08T06:55:55.195Z,20.94
2023-04-08T06:56:57.097Z,21.47
2023-04-08T06:57:59.005Z,20.66
2023-04-08T06:59:06.070Z,22.30
2023-04-08T07:00:08.926Z,22.28
2023-04-08T07:01:11.211Z,22.22
2023-04-08T07:02:15.922Z,22.59
2023-04-08T07:03:43.731Z,22.23
2023-04-08T07:04:46.999Z,21.86
2023-04-08T07:05:49.129Z,22.97
2023-04-08T07:06:52.099Z,22.62
2023-04-08T07:07:55.012Z,22.57
2023-04-08T07:09:00.978Z,20.86
2023-04-08T07:10:10.808Z,19.40
2023-04-08T07:11:21.620Z,19.57
2023-04-08T07:12:23.772Z,19.79
2023-04-08T07:13:26.565Z,20.47
2023-04-08T07:14:30.252Z,19.13
2023-04-08T07:15:33.446Z,20.19
2023-04-08T07:16:35.766Z,21.96
2023-04-08T07:17:37.905Z,21.18
2023-04-08T07:18:42.677Z,19.07
2023-04-08T07:19:44.832Z,20.60
2023-04-08T07:21:19.476Z,21.67
2023-04-08T07:22:22.184Z,20.98
2023-04-08T07:23:25.836Z,21.61
2023-04-08T07:24:28.196Z,20.57
2023-04-08T07:25:33.283Z,19.68
2023-04-08T07:26:35.451Z,19.55
2023-04-08T07:27:37.552Z,21.88
2023-04-08T07:28:39.800Z,20.36
2023-04-08T07:29:41.823Z,19.93
2023-04-08T07:30:44.107Z,19.56
2023-04-08T07:31:48.824Z,18.82
2023-04-08T07:32:51.145Z,19.88
2023-04-08T07:33:56.106Z,20.74
2023-04-08T07:35:02.619Z,20.83
2023-04-08T07:36:27.732Z,20.86
2023-04-08T07:37:31.563Z,21.11
2023-04-08T07:38:59.211Z,22.28
2023-04-08T07:40:01.738Z,21.67
2023-04-08T07:41:09.669Z,21.71
2023-04-08T07:43:37.590Z,20.65
2023-04-08T07:44:40.868Z,20.45
2023-04-08T07:45:48.581Z,20.85
2023-04-08T07:48:11.293Z,22.22
2023-04-08T07:49:15.476Z,23.40
2023-04-08T07:50:17.863Z,23.26
2023-04-08T07:51:20.741Z,23.25
2023-04-08T07:52:26.834Z,22.84
2023-04-08T07:53:30.994Z,22.43
2023-04-08T07:54:34.374Z,22.33
2023-04-08T07:55:39.330Z,23.10
2023-04-08T07:56:41.327Z,21.25
2023-04-08T07:57:43.542Z,21.90
2023-04-08T07:59:50.381Z,22.34
2023-04-08T08:00:52.911Z,21.38
2023-04-08T08:01:55.368Z,20.43
2023-04-08T08:02:57.819Z,19.93
2023-04-08T08:04:00.154Z,21.68
2023-04-08T08:05:03.633Z,21.59
2023-04-08T08:06:05.992Z,22.48
2023-04-08T08:07:07.943Z,22.18
2023-04-08T08:08:13.572Z,21.41
2023-04-08T08:09:17.811Z,20.92
2023-04-08T08:10:20.496Z,18.92
2023-04-08T08:11:22.924Z,20.08
2023-04-08T08:12:25.011Z,20.75
2023-04-08T08:13:27.105Z,19.75
2023-04-08T08:14:29.502Z,20.43
2023-04-08T08:15:31.444Z,20.03
2023-04-08T08:16:36.624Z,20.39
2023-04-08T08:17:38.586Z,20.49
2023-04-08T08:18:41.422Z,20.02
2023-04-08T08:19:43.284Z,19.36
2023-04-08T08:20:45.148Z,18.42
2023-04-08T08:21:47.250Z,18.12
2023-04-08T08:22:57.105Z,18.25
2023-04-08T08:24:01.490Z,19.10
2023-04-08T08:25:10.063Z,18.98
2023-04-08T08:26:22.510Z,20.22
2023-04-08T08:27:25.239Z,19.81
2023-04-08T08:28:33.276Z,19.68
2023-04-08T08:29:35.538Z,20.84
2023-04-08T08:30:38.743Z,20.00
2023-04-08T08:31:40.959Z,19.76
2023-04-08T08:32:43.182Z,20.48
2023-04-08T08:33:46.188Z,20.37
2023-04-08T08:34:48.301Z,19.24
2023-04-08T08:35:50.312Z,20.40
2023-04-08T08:36:53.373Z,20.43
2023-04-08T08:37:55.391Z,20.64
2023-04-08T08:38:59.588Z,20.39
2023-04-08T08:40:01.554Z,20.66
2023-04-08T08:41:04.951Z,21.24
2023-04-08T08:42:07.066Z,21.20
2023-04-08T08:43:11.502Z,21.60
2023-04-08T08:45:34.051Z,21.27
2023-04-08T08:46:42.174Z,20.67
2023-04-08T08:47:46.237Z,21.79
2023-04-08T08:48:49.341Z,21.97
2023-04-08T08:51:58.516Z,20.21
2023-04-08T08:53:01.382Z,19.82
2023-04-08T08:54:06.761Z,20.35
2023-04-08T08:55:27.694Z,19.11
2023-04-08T08:56:34.812Z,19.39
2023-04-08T08:57:38.701Z,19.69
2023-04-08T09:00:41.046Z,19.09
2023-04-08T09:01:48.813Z,18.95
2023-04-08T09:02:52.350Z,18.95
2023-04-08T10:28:51.782Z,13.59
2023-04-08T12:38:29.737Z,13.94
2023-04-08T15:07:39.093Z,13.44
2023-04-08T15:08:43.184Z,13.42
2023-04-08T15:13:30.473Z,13.38
2023-04-08T15:14:33.553Z,13.39
2023-04-08T15:23:29.131Z,13.24
2023-04-08T15:30:36.906Z,13.26
2023-04-08T15:31:55.480Z,13.18
2023-04-08T15:40:07.963Z,13.04
2023-04-08T15:41:21.501Z,12.96
2023-04-08T15:42:29.552Z,12.98
2023-04-08T15:43:34.102Z,12.97
2023-04-08T15:55:16.053Z,12.86
2023-04-08T15:56:41.208Z,12.84
2023-04-08T15:59:53.088Z,12.82
2023-04-08T16:09:14.012Z,12.69
2023-04-08T16:15:02.982Z,12.58
2023-04-08T16:16:12.944Z,12.56
2023-04-08T16:17:18.122Z,12.56
2023-04-08T16:18:26.388Z,12.52
2023-04-08T16:19:32.763Z,12.56
2023-04-08T16:23:25.398Z,12.50
2023-04-08T16:24:29.392Z,12.46
2023-04-08T16:30:07.278Z,12.40
2023-04-08T16:31:13.255Z,12.40
2023-04-08T16:47:21.541Z,12.19
2023-04-08T16:48:31.481Z,12.22
2023-04-08T16:49:41.174Z,12.20
2023-04-08T16:51:59.730Z,12.19
2023-04-08T16:53:27.949Z,12.16
2023-04-08T17:04:31.768Z,12.03
